Time;durP1;ratioP1;P1;durP2;ratioP2;P2;SDS_P1;SDS_P2;PMS_P1;PMS_P2;Temp;Humidity;BMP_temperature;BMP_pressure;BME280_temperature;BME280_humidity;BME280_pressure;Samples;Min_cycle;Max_cycle;Signal;HPM_P1;HPM_P2
2021/06/14 00:02:23;;;;;;;1.77;1.50;;;19.90;47.70;;;;;;4997258;28;20109;-89
2021/06/14 00:04:49;;;;;;;2.88;1.67;;;20.00;47.70;;;;;;4997662;28;20029;-88
2021/06/14 00:07:16;;;;;;;2.63;1.50;;;20.00;47.70;;;;;;4998894;28;20026;-89
2021/06/14 00:09:43;;;;;;;3.92;1.50;;;20.00;47.70;;;;;;4991381;28;20022;-89
2021/06/14 00:12:09;;;;;;;4.93;1.63;;;20.00;47.60;;;;;;4992527;28;20033;-90
2021/06/14 00:14:35;;;;;;;2.13;1.40;;;20.00;47.60;;;;;;5002392;28;20093;-88
2021/06/14 00:17:00;;;;;;;2.13;1.45;;;20.00;47.60;;;;;;5003862;28;21704;-88
2021/06/14 00:19:26;;;;;;;2.50;1.50;;;19.90;47.70;;;;;;5008230;28;20558;-90
2021/06/14 00:21:53;;;;;;;3.08;1.38;;;20.00;47.70;;;;;;4975754;28;20022;-88
2021/06/14 00:24:19;;;;;;;2.70;1.58;;;19.90;47.80;;;;;;4992063;28;20034;-88
2021/06/14 00:26:44;;;;;;;1.70;1.30;;;19.90;47.80;;;;;;5001444;28;20034;-87
2021/06/14 00:29:10;;;;;;;2.22;1.40;;;19.90;47.90;;;;;;4979429;28;20026;-87
2021/06/14 00:31:36;;;;;;;3.70;1.85;;;19.90;47.90;;;;;;4982051;28;20025;-87
2021/06/14 00:34:01;;;;;;;2.42;1.58;;;19.90;48.00;;;;;;4996418;28;20026;-86
2021/06/14 00:36:27;;;;;;;2.47;1.75;;;19.80;48.00;;;;;;4991886;28;20058;-86
2021/06/14 00:38:52;;;;;;;2.42;1.70;;;19.80;48.10;;;;;;4982525;28;20026;-85
2021/06/14 00:41:18;;;;;;;3.15;1.60;;;19.80;48.10;;;;;;4993699;28;20033;-85
2021/06/14 00:43:44;;;;;;;2.83;1.48;;;19.70;48.10;;;;;;4969666;28;20018;-85
2021/06/14 00:46:10;;;;;;;3.08;1.90;;;19.70;48.50;;;;;;4982124;28;20026;-86
2021/06/14 00:48:36;;;;;;;2.70;1.70;;;19.70;48.30;;;;;;4979299;28;20053;-85
2021/06/14 00:51:04;;;;;;;2.38;1.42;;;19.70;48.40;;;;;;4991463;28;20034;-85
2021/06/14 00:53:33;;;;;;;2.72;1.50;;;19.60;48.40;;;;;;5001141;28;20678;-84
2021/06/14 00:56:00;;;;;;;3.78;1.67;;;19.60;48.40;;;;;;5010626;28;20038;-86
2021/06/14 00:58:26;;;;;;;2.97;1.90;;;19.60;48.60;;;;;;5009162;28;20022;-86
2021/06/14 01:00:52;;;;;;;3.20;1.80;;;19.60;49.00;;;;;;4997835;28;20045;-85
2021/06/14 01:03:18;;;;;;;3.67;1.90;;;19.40;49.80;;;;;;5012346;28;20073;-86
2021/06/14 01:05:47;;;;;;;3.92;2.03;;;19.40;49.40;;;;;;5012202;28;20030;-85
2021/06/14 01:08:13;;;;;;;3.05;2.00;;;19.40;49.50;;;;;;4982973;28;20532;-86
2021/06/14 01:10:40;;;;;;;3.65;1.88;;;19.40;49.50;;;;;;4994271;28;20026;-85
2021/06/14 01:13:31;;;;;;;4.22;2.20;;;19.40;49.50;;;;;;5008549;28;20030;-86
2021/06/14 01:16:32;;;;;;;4.47;2.22;;;19.40;49.70;;;;;;4993113;28;20042;-86
2021/06/14 01:19:20;;;;;;;3.45;1.90;;;19.30;49.90;;;;;;4996485;28;20046;-86
2021/06/14 01:22:27;;;;;;;3.95;2.00;;;19.30;50.00;;;;;;4977574;28;20535;-85
2021/06/14 01:25:09;;;;;;;4.90;1.90;;;19.30;50.10;;;;;;4932606;29;20028;-86
2021/06/14 01:27:45;;;;;;;4.88;1.80;;;19.20;49.90;;;;;;4995759;28;20037;-85
2021/06/14 01:30:15;;;;;;;2.95;1.60;;;19.20;49.90;;;;;;5001275;28;20105;-87
2021/06/14 01:32:43;;;;;;;3.15;1.67;;;19.20;49.90;;;;;;5007274;28;20030;-86
2021/06/14 01:35:11;;;;;;;2.33;1.70;;;19.20;49.90;;;;;;4980456;28;20053;-86
2021/06/14 01:37:42;;;;;;;3.45;1.70;;;19.20;49.90;;;;;;4994868;28;20137;-88
2021/06/14 01:40:09;;;;;;;3.88;2.08;;;19.20;49.90;;;;;;4994890;28;20452;-87
2021/06/14 01:42:35;;;;;;;3.45;1.85;;;19.20;50.00;;;;;;4978977;28;20058;-87
2021/06/14 01:45:03;;;;;;;2.50;1.80;;;19.10;50.00;;;;;;4997318;28;20121;-88
2021/06/14 01:47:29;;;;;;;3.58;1.85;;;19.10;50.10;;;;;;4983479;28;20026;-86
2021/06/14 01:49:55;;;;;;;4.07;2.03;;;19.10;50.10;;;;;;5001173;28;20021;-89
2021/06/14 01:52:21;;;;;;;3.17;1.85;;;19.10;50.10;;;;;;5002533;28;20026;-89
2021/06/14 01:54:47;;;;;;;3.65;2.30;;;19.10;50.20;;;;;;4998079;28;20030;-89
2021/06/14 01:57:13;;;;;;;4.40;2.42;;;19.10;50.40;;;;;;4998581;28;20136;-88
2021/06/14 01:59:41;;;;;;;3.42;1.95;;;19.00;50.50;;;;;;4996117;28;20050;-88
2021/06/14 02:02:07;;;;;;;5.47;2.30;;;19.00;50.50;;;;;;4998669;28;20029;-87
2021/06/14 02:04:34;;;;;;;3.42;2.28;;;19.00;50.50;;;;;;4979706;28;20029;-85
2021/06/14 02:07:00;;;;;;;3.15;2.05;;;19.00;50.60;;;;;;5010985;28;20030;-86
2021/06/14 02:09:26;;;;;;;3.95;2.20;;;19.00;50.60;;;;;;4992394;28;20022;-87
2021/06/14 02:11:57;;;;;;;2.85;1.50;;;18.90;50.90;;;;;;4993991;28;20026;-86
2021/06/14 02:14:28;;;;;;;5.65;2.40;;;18.90;51.00;;;;;;4987114;28;20035;-86
2021/06/14 02:16:55;;;;;;;4.32;1.98;;;18.80;51.20;;;;;;5001252;28;20038;-87
2021/06/14 02:19:21;;;;;;;2.60;1.98;;;18.80;51.50;;;;;;4992582;28;20034;-87
2021/06/14 02:21:47;;;;;;;3.17;2.38;;;18.80;51.60;;;;;;5003699;28;20044;-87
2021/06/14 02:24:14;;;;;;;5.15;2.97;;;18.70;51.70;;;;;;5001863;28;20017;-88
2021/06/14 02:26:41;;;;;;;3.47;2.28;;;18.70;52.00;;;;;;5012906;28;20026;-86
2021/06/14 02:29:07;;;;;;;2.78;2.10;;;18.70;52.10;;;;;;5003886;28;20071;-88
2021/06/14 02:31:34;;;;;;;3.25;2.00;;;18.70;52.00;;;;;;4997796;28;20018;-88
2021/06/14 02:34:00;;;;;;;3.63;2.25;;;18.70;52.10;;;;;;4994962;28;20021;-87
2021/06/14 02:36:26;;;;;;;5.43;3.00;;;18.70;52.20;;;;;;4998574;28;20026;-87
2021/06/14 02:38:53;;;;;;;6.45;2.72;;;18.60;52.90;;;;;;5005897;28;20385;-88
2021/06/14 02:41:20;;;;;;;4.68;3.13;;;18.50;53.60;;;;;;4991693;28;20042;-88
2021/06/14 02:43:47;;;;;;;4.57;2.75;;;18.50;53.10;;;;;;4992913;28;20113;-86
2021/06/14 02:46:14;;;;;;;4.68;2.83;;;18.50;53.30;;;;;;5003178;28;20116;-87
2021/06/14 02:48:41;;;;;;;6.22;2.90;;;18.50;53.30;;;;;;4993021;28;20026;-87
2021/06/14 02:51:08;;;;;;;5.10;3.17;;;18.50;53.30;;;;;;4992535;28;20026;-86
2021/06/14 02:53:34;;;;;;;4.60;2.85;;;18.50;53.40;;;;;;4993328;28;20049;-87
2021/06/14 02:56:07;;;;;;;3.60;2.40;;;18.40;53.40;;;;;;4991700;28;20026;-86
2021/06/14 02:58:36;;;;;;;5.10;3.50;;;18.40;53.60;;;;;;4991968;28;20019;-87
2021/06/14 03:01:04;;;;;;;5.35;3.38;;;18.40;53.80;;;;;;4986231;28;20028;-86
2021/06/14 03:03:29;;;;;;;4.47;2.78;;;18.40;53.90;;;;;;5007633;28;20030;-86
2021/06/14 03:05:55;;;;;;;4.78;2.72;;;18.40;54.00;;;;;;4974473;28;20030;-86
2021/06/14 03:08:21;;;;;;;5.07;2.80;;;18.40;53.90;;;;;;5001144;28;20417;-87
2021/06/14 03:10:48;;;;;;;3.40;2.55;;;18.40;54.00;;;;;;4997139;28;20030;-87
2021/06/14 03:13:14;;;;;;;5.05;3.22;;;18.40;54.10;;;;;;4991395;28;20454;-85
2021/06/14 03:15:41;;;;;;;5.28;3.00;;;18.30;54.20;;;;;;5002691;28;20046;-87
2021/06/14 03:18:08;;;;;;;6.32;3.05;;;18.30;54.40;;;;;;5008607;28;20048;-85
2021/06/14 03:20:34;;;;;;;5.13;2.80;;;18.20;54.40;;;;;;4992523;28;20065;-86
2021/06/14 03:23:00;;;;;;;4.38;2.92;;;18.20;54.50;;;;;;4992160;28;20033;-85
2021/06/14 03:25:26;;;;;;;4.50;2.70;;;18.30;54.60;;;;;;4994277;28;20045;-87
2021/06/14 03:27:54;;;;;;;4.22;3.00;;;18.20;54.60;;;;;;4990844;28;20044;-86
2021/06/14 03:30:22;;;;;;;3.72;2.90;;;18.20;54.70;;;;;;4999789;28;20091;-85
2021/06/14 03:32:48;;;;;;;5.80;3.08;;;18.20;54.80;;;;;;4991685;28;20117;-87
2021/06/14 03:35:17;;;;;;;5.30;3.38;;;18.20;55.00;;;;;;5003477;28;20106;-86
2021/06/14 03:37:44;;;;;;;4.45;2.90;;;18.20;55.00;;;;;;5010541;28;20034;-86
2021/06/14 03:40:11;;;;;;;4.25;2.95;;;18.20;55.00;;;;;;4991374;28;20030;-87
2021/06/14 03:42:38;;;;;;;5.05;2.83;;;18.20;55.00;;;;;;4997065;28;20113;-86
2021/06/14 03:45:06;;;;;;;6.57;3.08;;;18.20;54.90;;;;;;4992785;28;20045;-87
2021/06/14 03:47:31;;;;;;;4.30;2.90;;;18.20;54.80;;;;;;5002912;28;20030;-86
2021/06/14 03:49:57;;;;;;;4.30;2.75;;;18.20;54.80;;;;;;5005432;28;20594;-87
2021/06/14 03:52:22;;;;;;;4.80;2.72;;;18.20;54.90;;;;;;4997166;28;20026;-86
2021/06/14 03:54:48;;;;;;;4.78;3.05;;;18.20;55.00;;;;;;4973857;28;20041;-87
2021/06/14 03:57:14;;;;;;;4.38;2.80;;;18.20;55.00;;;;;;5003301;28;20030;-86
2021/06/14 03:59:39;;;;;;;5.93;2.90;;;18.20;55.00;;;;;;5009024;28;20117;-87
2021/06/14 04:02:05;;;;;;;4.03;2.67;;;18.20;55.70;;;;;;5004619;28;20100;-87
2021/06/14 04:04:42;;;;;;;5.00;3.10;;;18.20;55.10;;;;;;5002840;28;20462;-88
2021/06/14 04:07:08;;;;;;;4.40;2.50;;;18.20;55.10;;;;;;4973917;28;20037;-87
2021/06/14 04:09:34;;;;;;;5.78;2.83;;;18.20;55.10;;;;;;4981315;28;20018;-86
2021/06/14 04:12:01;;;;;;;4.47;2.67;;;18.20;55.00;;;;;;4991437;28;20420;-89
2021/06/14 04:14:26;;;;;;;5.28;2.50;;;18.30;55.60;;;;;;4979511;28;20018;-88
2021/06/14 04:16:52;;;;;;;5.22;2.53;;;18.30;54.90;;;;;;4991836;28;20100;-88
2021/06/14 04:19:17;;;;;;;4.38;2.80;;;18.30;54.90;;;;;;4974463;28;20444;-88
2021/06/14 04:21:43;;;;;;;5.30;2.50;;;18.30;54.80;;;;;;5006337;28;20045;-86
2021/06/14 04:24:09;;;;;;;4.25;2.63;;;18.30;55.00;;;;;;4991764;28;20105;-87
2021/06/14 04:26:35;;;;;;;5.25;2.58;;;18.30;54.90;;;;;;4977468;28;20480;-86
2021/06/14 04:29:01;;;;;;;5.30;2.70;;;18.40;54.90;;;;;;5010123;28;20105;-88
2021/06/14 04:31:26;;;;;;;4.88;2.85;;;18.40;54.90;;;;;;5007969;28;20019;-85
2021/06/14 04:33:52;;;;;;;3.35;2.50;;;18.40;54.90;;;;;;5014670;28;20092;-87
2021/06/14 04:36:18;;;;;;;4.93;2.60;;;18.40;54.90;;;;;;5013427;28;20042;-85
2021/06/14 04:38:43;;;;;;;3.97;2.53;;;18.40;55.00;;;;;;5011073;28;20025;-86
2021/06/14 04:41:09;;;;;;;5.72;2.88;;;18.40;55.10;;;;;;4997874;28;20045;-87
2021/06/14 04:43:35;;;;;;;3.90;2.30;;;18.40;55.10;;;;;;5009131;28;20030;-87
2021/06/14 04:46:01;;;;;;;3.97;2.47;;;18.50;55.00;;;;;;4986365;28;20128;-87
2021/06/14 04:48:26;;;;;;;5.10;2.60;;;18.60;54.80;;;;;;4995698;28;20597;-88
2021/06/14 04:50:52;;;;;;;3.78;2.15;;;18.70;54.70;;;;;;4994515;28;20064;-87
2021/06/14 04:53:18;;;;;;;5.53;2.90;;;19.10;54.10;;;;;;5005566;28;20037;-86
2021/06/14 04:55:43;;;;;;;6.95;3.22;;;19.70;52.90;;;;;;5013484;28;20183;-87
2021/06/14 04:58:10;;;;;;;4.60;3.03;;;20.20;52.10;;;;;;5012164;28;20034;-87
2021/06/14 05:00:35;;;;;;;4.82;2.78;;;20.70;51.20;;;;;;4978163;28;20051;-88
2021/06/14 05:03:02;;;;;;;4.47;2.60;;;21.10;50.20;;;;;;5005460;28;20141;-87
2021/06/14 05:05:27;;;;;;;4.20;2.72;;;21.60;49.20;;;;;;5002476;28;20548;-87
2021/06/14 05:07:53;;;;;;;5.05;2.70;;;21.90;49.00;;;;;;4993800;28;20035;-86
2021/06/14 05:10:19;;;;;;;5.95;3.20;;;22.30;47.50;;;;;;4998296;28;20022;-87
2021/06/14 05:12:44;;;;;;;5.32;3.03;;;22.50;46.80;;;;;;4993777;28;20035;-86
2021/06/14 05:15:10;;;;;;;5.78;3.15;;;22.50;46.50;;;;;;5000262;28;20316;-87
2021/06/14 05:17:36;;;;;;;3.67;2.53;;;22.80;46.60;;;;;;4994264;28;20054;-87
2021/06/14 05:20:03;;;;;;;6.20;3.40;;;23.00;45.60;;;;;;4993347;28;20035;-87
2021/06/14 05:22:29;;;;;;;5.68;3.03;;;23.30;45.10;;;;;;4993861;28;20092;-86
2021/06/14 05:24:54;;;;;;;6.00;2.67;;;23.20;44.80;;;;;;5000755;28;20025;-86
2021/06/14 05:27:20;;;;;;;7.10;2.90;;;23.40;44.90;;;;;;5005016;28;20466;-85
2021/06/14 05:29:46;;;;;;;4.47;2.75;;;23.50;44.60;;;;;;4999674;28;20057;-86
2021/06/14 05:32:11;;;;;;;5.30;2.70;;;23.50;44.50;;;;;;4976172;28;20113;-85
2021/06/14 05:34:37;;;;;;;5.80;2.70;;;23.50;44.30;;;;;;4998256;28;20030;-85
2021/06/14 05:37:03;;;;;;;5.18;3.10;;;23.70;44.50;;;;;;4975732;28;20038;-85
2021/06/14 05:39:28;;;;;;;5.57;3.05;;;23.60;44.40;;;;;;4995147;28;20485;-93
2021/06/14 05:41:54;;;;;;;4.15;2.45;;;23.50;44.50;;;;;;4978430;28;20480;-86
2021/06/14 05:44:20;;;;;;;4.00;2.35;;;23.60;44.50;;;;;;4973483;28;20021;-86
2021/06/14 05:46:45;;;;;;;5.47;3.03;;;23.80;44.50;;;;;;4990558;28;20593;-85
2021/06/14 05:49:12;;;;;;;3.85;2.50;;;23.80;44.30;;;;;;4990467;28;20085;-87
2021/06/14 05:51:38;;;;;;;5.95;2.92;;;23.80;44.40;;;;;;4991923;28;20022;-86
2021/06/14 05:54:05;;;;;;;3.25;2.08;;;23.80;44.40;;;;;;4994192;28;20018;-83
2021/06/14 05:56:31;;;;;;;4.80;3.00;;;23.70;44.70;;;;;;4987107;28;20062;-84
2021/06/14 05:58:56;;;;;;;4.65;2.67;;;23.60;44.70;;;;;;4978709;28;20045;-84
2021/06/14 06:01:22;;;;;;;6.15;2.67;;;23.50;44.70;;;;;;4991018;28;20121;-84
2021/06/14 06:03:47;;;;;;;5.07;3.13;;;23.40;44.70;;;;;;4996114;28;20089;-85
2021/06/14 06:06:13;;;;;;;4.45;2.88;;;23.20;44.70;;;;;;4992243;28;20023;-83
2021/06/14 06:08:38;;;;;;;6.97;3.78;;;23.00;45.40;;;;;;4999374;28;20444;-84
2021/06/14 06:11:04;;;;;;;5.53;3.33;;;23.00;45.70;;;;;;4990098;28;20033;-84
2021/06/14 06:13:30;;;;;;;6.47;3.50;;;22.90;45.70;;;;;;4990536;28;20106;-83
2021/06/14 06:15:56;;;;;;;7.25;3.20;;;22.90;46.00;;;;;;4994811;28;20046;-84
2021/06/14 06:18:21;;;;;;;5.18;2.78;;;22.90;45.80;;;;;;4993808;28;20057;-83
2021/06/14 06:20:47;;;;;;;5.93;3.30;;;22.90;45.70;;;;;;4992110;28;20563;-83
2021/06/14 06:23:13;;;;;;;4.68;2.88;;;22.90;45.90;;;;;;4988373;28;20022;-84
2021/06/14 06:25:39;;;;;;;4.43;2.22;;;23.10;46.10;;;;;;4990919;28;20033;-84
2021/06/14 06:28:04;;;;;;;3.75;2.58;;;23.20;45.70;;;;;;4990861;28;20027;-84
2021/06/14 06:30:37;;;;;;;4.00;2.60;;;23.40;45.30;;;;;;4995295;28;20477;-84
2021/06/14 06:33:03;;;;;;;;;;;23.60;45.30;;;;;;4991631;28;20093;-85
2021/06/14 06:35:29;;;;;;;4.43;2.45;;;23.80;45.00;;;;;;4988746;28;20660;-85
2021/06/14 06:37:54;;;;;;;5.47;3.53;;;23.90;44.50;;;;;;4994905;28;20121;-85
2021/06/14 06:40:20;;;;;;;6.55;3.13;;;23.80;43.90;;;;;;4993460;28;20461;-85
2021/06/14 06:42:46;;;;;;;4.97;2.70;;;23.80;44.00;;;;;;4974002;28;20026;-85
2021/06/14 06:45:13;;;;;;;5.60;3.03;;;23.80;44.30;;;;;;4993463;28;20457;-84
2021/06/14 06:47:39;;;;;;;6.25;3.05;;;23.90;44.50;;;;;;4993295;28;20497;-87
2021/06/14 06:50:06;;;;;;;7.82;3.45;;;23.80;44.70;;;;;;4990258;28;20031;-85
2021/06/14 06:52:35;;;;;;;7.70;3.55;;;23.60;45.30;;;;;;4982987;28;20125;-83
2021/06/14 06:55:01;;;;;;;6.30;2.90;;;23.60;45.40;;;;;;4972170;28;20472;-83
2021/06/14 06:57:27;;;;;;;6.28;3.50;;;23.70;45.70;;;;;;4998248;28;20069;-83
2021/06/14 06:59:52;;;;;;;7.07;3.20;;;23.70;45.30;;;;;;4985011;28;20025;-83
2021/06/14 07:02:18;;;;;;;4.30;2.78;;;23.70;45.60;;;;;;4991338;28;20432;-83
2021/06/14 07:04:43;;;;;;;2.90;1.92;;;23.80;45.40;;;;;;4997166;28;20454;-83
2021/06/14 07:07:12;;;;;;;4.53;2.80;;;24.00;45.10;;;;;;4993367;28;20149;-91
2021/06/14 07:09:37;;;;;;;7.55;2.97;;;24.20;45.10;;;;;;4993012;28;20833;-85
2021/06/14 07:12:06;;;;;;;6.30;3.05;;;24.30;44.70;;;;;;4995019;28;20109;-86
2021/06/14 07:14:31;;;;;;;4.32;2.58;;;24.30;44.90;;;;;;5003413;28;20029;-86
2021/06/14 07:16:57;;;;;;;5.35;2.88;;;24.40;44.40;;;;;;4995587;28;20038;-85
2021/06/14 07:19:22;;;;;;;4.80;2.80;;;24.40;43.70;;;;;;4991243;28;20038;-85
2021/06/14 07:21:48;;;;;;;4.90;3.00;;;24.30;43.30;;;;;;4993294;28;20031;-83
2021/06/14 07:24:14;;;;;;;5.90;3.30;;;24.50;43.40;;;;;;4969875;28;20575;-85
2021/06/14 07:26:39;;;;;;;6.05;2.67;;;24.50;43.00;;;;;;5000804;28;20036;-81
2021/06/14 07:29:05;;;;;;;7.85;4.63;;;24.70;43.20;;;;;;4996867;28;20030;-86
2021/06/14 07:31:31;;;;;;;5.78;3.40;;;24.60;42.70;;;;;;4996175;28;20026;-86
2021/06/14 07:33:58;;;;;;;5.00;2.30;;;24.60;43.10;;;;;;5003622;28;20026;-85
2021/06/14 07:36:25;;;;;;;6.20;3.20;;;24.70;43.30;;;;;;4981206;28;20041;-83
2021/06/14 07:38:51;;;;;;;5.75;2.60;;;24.80;42.90;;;;;;4995443;28;20026;-83
2021/06/14 07:41:16;;;;;;;4.30;2.65;;;24.80;43.10;;;;;;5006834;28;20103;-86
2021/06/14 07:43:42;;;;;;;6.38;2.63;;;24.90;43.30;;;;;;5003810;28;20026;-87
2021/06/14 07:46:08;;;;;;;6.57;3.15;;;25.00;43.20;;;;;;4998633;28;20113;-91
2021/06/14 07:48:35;;;;;;;6.05;2.85;;;24.90;43.00;;;;;;4993941;28;20363;-84
2021/06/14 07:51:01;;;;;;;5.03;2.92;;;24.80;43.20;;;;;;4983130;28;20022;-86
2021/06/14 07:53:30;;;;;;;4.45;2.50;;;24.80;43.30;;;;;;4996759;28;20022;-87
2021/06/14 07:55:59;;;;;;;6.65;3.13;;;24.90;43.50;;;;;;4998077;28;20030;-87
2021/06/14 07:58:25;;;;;;;3.80;2.30;;;24.90;43.50;;;;;;5002461;28;20049;-86
2021/06/14 08:00:51;;;;;;;5.35;2.67;;;25.00;43.50;;;;;;4976992;28;20030;-87
2021/06/14 08:03:17;;;;;;;5.00;2.78;;;25.10;43.40;;;;;;4996250;28;20034;-86
2021/06/14 08:05:44;;;;;;;7.95;2.90;;;25.20;43.40;;;;;;4991327;28;20037;-85
2021/06/14 08:08:11;;;;;;;5.50;2.70;;;25.30;43.40;;;;;;4984100;28;20026;-84
2021/06/14 08:10:36;;;;;;;4.65;3.00;;;25.30;43.30;;;;;;4988638;28;20401;-88
2021/06/14 08:13:02;;;;;;;4.05;2.55;;;25.30;43.40;;;;;;4990093;28;20106;-86
2021/06/14 08:15:30;;;;;;;6.47;2.67;;;25.50;43.30;;;;;;4991892;28;20034;-85
2021/06/14 08:18:07;;;;;;;4.57;2.50;;;25.60;43.30;;;;;;4984951;28;20070;-86
2021/06/14 08:25:55;;;;;;;4.03;2.08;;;25.80;42.70;;;;;;4988213;28;20042;-87
2021/06/14 08:28:21;;;;;;;3.97;2.38;;;26.00;42.50;;;;;;4988435;28;20031;-87
2021/06/14 08:30:47;;;;;;;4.43;2.33;;;26.10;42.50;;;;;;4992971;28;20022;-86
2021/06/14 08:33:13;;;;;;;4.65;3.00;;;26.20;41.80;;;;;;4990672;28;20029;-86
2021/06/14 08:35:41;;;;;;;5.13;2.53;;;26.10;40.80;;;;;;4986743;28;20045;-84
2021/06/14 08:38:07;;;;;;;4.85;2.92;;;26.10;40.80;;;;;;4987655;28;20042;-85
2021/06/14 08:40:38;;;;;;;3.63;2.05;;;26.10;40.20;;;;;;4988475;28;20038;-87
2021/06/14 08:43:08;;;;;;;3.55;2.30;;;26.10;40.70;;;;;;4991422;28;20026;-86
2021/06/14 08:45:40;;;;;;;3.40;1.90;;;26.30;40.40;;;;;;4989135;28;20026;-86
2021/06/14 08:48:08;;;;;;;3.15;1.80;;;26.50;40.20;;;;;;4987698;28;20022;-86
2021/06/14 08:50:35;;;;;;;3.95;2.33;;;26.60;39.80;;;;;;4967095;28;20042;-89
2021/06/14 08:53:01;;;;;;;5.90;2.38;;;26.70;39.40;;;;;;4987149;28;20377;-86
2021/06/14 08:55:27;;;;;;;3.67;1.95;;;26.90;39.10;;;;;;4986806;28;20030;-88
2021/06/14 08:57:53;;;;;;;5.10;2.60;;;26.90;38.90;;;;;;4970746;28;20045;-86
2021/06/14 09:00:23;;;;;;;3.92;2.20;;;27.10;39.30;;;;;;4988286;28;20560;-85
2021/06/14 09:02:49;;;;;;;4.57;2.10;;;27.20;38.70;;;;;;4991498;28;20114;-85
2021/06/14 09:05:17;;;;;;;3.42;2.30;;;27.30;38.80;;;;;;4984417;28;20026;-85
2021/06/14 09:07:43;;;;;;;3.50;2.15;;;27.50;38.80;;;;;;4992584;28;20030;-86
2021/06/14 09:10:20;;;;;;;4.47;2.50;;;27.50;38.50;;;;;;4986976;28;20141;-85
2021/06/14 09:12:46;;;;;;;4.35;2.55;;;27.50;38.50;;;;;;4984218;28;20032;-85
2021/06/14 09:15:13;;;;;;;5.30;2.83;;;27.40;38.50;;;;;;4966146;28;20373;-84
2021/06/14 09:17:39;;;;;;;3.45;2.10;;;27.30;38.50;;;;;;4982194;28;20042;-86
2021/06/14 09:20:13;;;;;;;3.25;1.88;;;27.30;38.70;;;;;;4972995;28;20436;-85
2021/06/14 09:22:39;;;;;;;4.40;2.35;;;27.40;38.60;;;;;;4992408;28;20489;-86
2021/06/14 09:25:12;;;;;;;4.07;2.63;;;27.60;38.70;;;;;;4992625;28;20030;-83
2021/06/14 09:27:41;;;;;;;4.03;2.25;;;27.50;37.40;;;;;;4988800;28;20125;-86
2021/06/14 09:30:27;;;;;;;5.45;2.67;;;27.50;37.30;;;;;;4969835;28;20015;-86
2021/06/14 09:32:58;;;;;;;4.03;2.00;;;27.50;37.30;;;;;;4982881;28;20054;-85
2021/06/14 09:35:26;;;;;;;2.78;1.60;;;27.60;37.70;;;;;;4988881;28;20027;-86
2021/06/14 09:38:17;;;;;;;2.42;1.80;;;27.90;37.50;;;;;;4968492;28;20031;-85
2021/06/14 09:40:48;;;;;;;4.35;2.00;;;28.10;37.00;;;;;;4988484;28;20086;-87
2021/06/14 09:43:29;;;;;;;6.30;2.75;;;28.20;36.30;;;;;;4970453;28;20096;-87
2021/06/14 09:45:57;;;;;;;6.63;2.78;;;28.10;35.20;;;;;;4985731;28;20102;-82
2021/06/14 09:48:28;;;;;;;3.88;2.55;;;28.20;34.70;;;;;;4990993;28;20037;-85
2021/06/14 09:50:56;;;;;;;4.68;2.80;;;28.10;34.90;;;;;;4991114;28;20105;-86
2021/06/14 09:53:26;;;;;;;6.50;3.13;;;28.20;34.90;;;;;;4974670;28;20034;-85
2021/06/14 09:55:52;;;;;;;4.60;2.40;;;28.10;34.40;;;;;;4984269;28;20074;-86
2021/06/14 09:58:23;;;;;;;5.95;3.08;;;28.10;34.70;;;;;;4990718;28;20037;-85
2021/06/14 10:01:03;;;;;;;5.28;2.65;;;28.20;34.80;;;;;;4992431;28;20176;-87
2021/06/14 10:03:45;;;;;;;5.53;3.08;;;28.30;35.00;;;;;;4991802;28;20022;-87
2021/06/14 10:06:12;;;;;;;5.63;3.25;;;28.40;35.00;;;;;;4991649;28;20030;-87
2021/06/14 10:08:38;;;;;;;3.63;2.60;;;28.30;34.40;;;;;;4968890;28;20125;-87
2021/06/14 10:11:04;;;;;;;4.90;3.08;;;28.50;34.80;;;;;;4991845;28;20096;-85
2021/06/14 10:13:31;;;;;;;7.25;4.25;;;28.60;34.90;;;;;;4989871;28;20054;-84
2021/06/14 10:16:06;;;;;;;8.23;4.00;;;28.60;34.70;;;;;;4988901;28;20015;-83
2021/06/14 10:18:35;;;;;;;6.60;3.90;;;28.60;35.00;;;;;;4983911;28;20042;-84
2021/06/14 10:21:03;;;;;;;8.35;4.40;;;28.60;35.10;;;;;;4989968;28;20029;-85
2021/06/14 10:23:29;;;;;;;6.13;3.67;;;28.60;35.20;;;;;;4991159;28;20480;-85
2021/06/14 10:25:57;;;;;;;6.95;3.78;;;28.60;35.60;;;;;;4992240;28;20030;-85
2021/06/14 10:28:24;;;;;;;6.00;3.40;;;28.60;35.70;;;;;;4989970;28;20046;-85
2021/06/14 10:30:51;;;;;;;6.45;3.67;;;28.60;35.40;;;;;;4987079;28;20116;-85
2021/06/14 10:33:21;;;;;;;8.25;3.85;;;28.70;35.40;;;;;;4987795;28;20022;-86
2021/06/14 10:35:48;;;;;;;8.23;4.43;;;28.70;34.70;;;;;;4988747;28;20065;-86
2021/06/14 10:38:16;;;;;;;5.90;3.53;;;28.80;34.40;;;;;;4989381;28;20053;-85
2021/06/14 10:40:42;;;;;;;5.15;3.08;;;28.80;34.10;;;;;;4989338;28;20601;-85
2021/06/14 10:43:08;;;;;;;5.18;3.47;;;28.80;33.90;;;;;;4989175;28;20030;-85
2021/06/14 10:45:34;;;;;;;4.65;3.17;;;28.90;34.00;;;;;;4990452;28;20081;-83
2021/06/14 10:48:00;;;;;;;6.07;3.50;;;29.00;33.70;;;;;;4990512;28;20022;-86
2021/06/14 10:50:34;;;;;;;8.70;4.50;;;29.10;33.40;;;;;;4985448;28;20374;-85
2021/06/14 10:52:59;;;;;;;5.57;3.85;;;29.10;32.60;;;;;;4991261;28;20034;-85
2021/06/14 10:55:37;;;;;;;7.60;4.15;;;29.10;32.90;;;;;;4990673;28;20101;-85
2021/06/14 10:58:17;;;;;;;11.75;4.80;;;29.20;33.10;;;;;;4990269;28;20129;-87
2021/06/14 11:00:43;;;;;;;6.38;4.28;;;29.40;32.90;;;;;;4990029;28;20080;-89
2021/06/14 11:03:10;;;;;;;5.50;3.25;;;29.20;33.20;;;;;;4980151;28;20485;-87
2021/06/14 11:05:39;;;;;;;6.63;3.70;;;29.30;32.90;;;;;;4985683;28;20351;-86
2021/06/14 11:08:11;;;;;;;4.55;3.28;;;29.10;32.10;;;;;;4989764;28;20076;-85
2021/06/14 11:10:37;;;;;;;8.40;4.15;;;29.20;32.40;;;;;;5004900;28;20026;-87
2021/06/14 11:13:14;;;;;;;7.63;3.92;;;29.30;32.20;;;;;;4989304;28;20031;-86
2021/06/14 11:15:44;;;;;;;7.07;3.22;;;29.40;32.10;;;;;;4986159;28;20030;-87
2021/06/14 11:18:39;;;;;;;5.40;2.80;;;29.60;32.40;;;;;;4985895;28;20034;-86
2021/06/14 11:21:06;;;;;;;4.63;2.50;;;29.90;32.40;;;;;;4978211;28;20035;-87
2021/06/14 11:23:32;;;;;;;4.72;2.97;;;30.20;32.10;;;;;;4985310;28;20069;-86
2021/06/14 11:25:58;;;;;;;4.78;3.15;;;30.30;31.40;;;;;;4987466;28;20477;-87
2021/06/14 11:28:44;;;;;;;5.93;3.72;;;30.20;31.40;;;;;;4990620;28;20038;-88
2021/06/14 11:31:24;;;;;;;5.13;3.00;;;30.00;31.10;;;;;;4982663;28;20030;-85
2021/06/14 11:33:58;;;;;;;4.93;2.95;;;29.90;31.80;;;;;;4987672;28;20080;-85
2021/06/14 11:36:29;;;;;;;5.95;3.10;;;30.00;31.90;;;;;;4985574;28;20042;-85
2021/06/14 11:38:57;;;;;;;4.28;3.15;;;30.20;31.80;;;;;;4985560;28;20069;-86
2021/06/14 11:41:30;;;;;;;5.78;3.13;;;30.40;31.70;;;;;;4986719;28;20536;-88
2021/06/14 11:44:24;;;;;;;5.00;2.50;;;30.50;31.50;;;;;;4984495;28;20113;-88
2021/06/14 11:47:01;;;;;;;7.13;3.97;;;30.60;31.50;;;;;;4986143;28;20393;-87
2021/06/14 11:49:35;;;;;;;6.15;2.70;;;30.60;30.80;;;;;;4986748;28;20041;-88
2021/06/14 11:52:04;;;;;;;4.93;2.70;;;30.70;31.10;;;;;;4986426;28;20109;-88
2021/06/14 11:54:29;;;;;;;3.67;2.30;;;30.70;31.00;;;;;;4988936;28;20030;-90
2021/06/14 11:57:01;;;;;;;6.95;3.60;;;30.80;31.10;;;;;;4989213;28;20027;-87
2021/06/14 11:59:34;;;;;;;;;;;30.90;30.50;;;;;;4987420;28;20037;-86
2021/06/14 12:02:04;;;;;;;3.95;2.30;;;30.80;30.80;;;;;;4992785;28;19909;-88
2021/06/14 12:04:31;;;;;;;3.67;2.10;;;31.00;31.30;;;;;;4988769;28;20026;-87
2021/06/14 12:07:00;;;;;;;4.47;2.53;;;31.20;31.40;;;;;;4986055;28;20026;-87
2021/06/14 12:09:27;;;;;;;4.68;2.40;;;31.30;31.20;;;;;;4985852;28;20405;-87
2021/06/14 12:12:07;;;;;;;5.40;1.98;;;31.40;31.10;;;;;;4982305;28;20076;-87
2021/06/14 12:14:33;;;;;;;4.55;2.28;;;31.80;31.20;;;;;;4984084;28;20022;-86
2021/06/14 12:17:01;;;;;;;6.43;2.33;;;31.90;30.70;;;;;;4987574;28;20523;-89
2021/06/14 12:19:32;;;;;;;3.55;2.00;;;32.00;30.70;;;;;;4969419;28;20029;-87
2021/06/14 12:21:58;;;;;;;4.82;1.90;;;32.00;30.60;;;;;;4972813;28;20388;-88
2021/06/14 12:24:25;;;;;;;2.83;1.83;;;32.10;30.70;;;;;;4990263;28;20018;-87
2021/06/14 12:27:05;;;;;;;2.88;1.90;;;32.10;30.60;;;;;;4972355;28;20168;-86
2021/06/14 12:29:31;;;;;;;4.05;2.00;;;32.20;30.40;;;;;;4972353;28;20026;-87
2021/06/14 12:32:23;;;;;;;3.42;1.90;;;32.40;30.30;;;;;;4984754;28;20029;-89
2021/06/14 12:34:50;;;;;;;2.30;1.73;;;32.40;30.30;;;;;;4972707;28;20069;-88
2021/06/14 12:37:19;;;;;;;4.32;2.40;;;32.60;30.20;;;;;;4974341;28;20045;-87
2021/06/14 12:39:58;;;;;;;4.03;1.75;;;32.60;29.90;;;;;;4990760;28;20022;-86
2021/06/14 12:42:24;;;;;;;5.15;3.00;;;32.70;30.00;;;;;;4988914;28;20201;-89
2021/06/14 12:45:17;;;;;;;4.53;2.42;;;32.50;29.70;;;;;;4992796;28;20050;-86
2021/06/14 12:47:48;;;;;;;5.13;3.05;;;32.30;30.80;;;;;;4985262;28;20476;-87
2021/06/14 12:50:19;;;;;;;3.88;2.10;;;32.20;30.00;;;;;;4974884;28;20034;-86
2021/06/14 12:52:45;;;;;;;5.28;2.30;;;32.20;30.40;;;;;;4992220;28;20061;-87
2021/06/14 12:55:20;;;;;;;3.55;2.10;;;32.40;30.10;;;;;;4993127;28;20058;-88
2021/06/14 12:57:48;;;;;;;3.38;1.67;;;32.60;30.10;;;;;;5005760;28;20034;-85
2021/06/14 13:00:21;;;;;;;2.72;1.70;;;32.80;29.90;;;;;;4980895;28;20071;-88